createdAt,value
2022-10-03T00:01:44.175Z,15.01
2022-10-03T00:04:35.735Z,15.00
2022-10-03T00:07:30.012Z,14.97
2022-10-03T00:10:18.666Z,14.96
2022-10-03T00:13:07.706Z,14.94
2022-10-03T00:16:02.226Z,14.93
2022-10-03T00:18:48.022Z,14.93
2022-10-03T00:21:41.425Z,14.92
2022-10-03T00:24:24.426Z,14.90
2022-10-03T00:27:08.599Z,14.91
2022-10-03T00:30:02.122Z,14.91
2022-10-03T00:33:22.244Z,14.88
2022-10-03T00:36:16.689Z,14.83
2022-10-03T00:39:09.301Z,14.83
2022-10-03T00:42:07.175Z,14.83
2022-10-03T00:44:59.316Z,14.83
2022-10-03T00:47:51.111Z,14.82
2022-10-03T00:50:32.904Z,14.83
2022-10-03T00:53:27.404Z,14.83
2022-10-03T00:56:25.819Z,14.83
2022-10-03T00:59:07.078Z,14.83
2022-10-03T01:01:45.907Z,14.82
2022-10-03T01:05:01.630Z,14.83
2022-10-03T01:08:26.653Z,14.82
2022-10-03T01:11:09.140Z,14.79
2022-10-03T01:13:46.798Z,14.81
2022-10-03T01:16:44.506Z,14.82
2022-10-03T01:19:49.855Z,14.82
2022-10-03T01:23:13.202Z,14.81
2022-10-03T01:25:53.196Z,14.77
2022-10-03T01:29:28.214Z,14.78
2022-10-03T01:32:08.384Z,14.77
2022-10-03T01:35:31.669Z,14.79
2022-10-03T01:38:40.387Z,14.78
2022-10-03T01:41:36.401Z,14.78
2022-10-03T01:44:26.395Z,14.80
2022-10-03T01:47:14.335Z,14.81
2022-10-03T01:50:00.101Z,14.81
2022-10-03T01:53:06.752Z,14.82
2022-10-03T01:55:55.662Z,14.81
2022-10-03T01:58:37.153Z,14.80
2022-10-03T02:01:21.702Z,14.81
2022-10-03T02:04:22.496Z,14.82
2022-10-03T02:07:12.516Z,14.82
2022-10-03T02:09:52.338Z,14.82
2022-10-03T02:12:26.825Z,14.84
2022-10-03T02:15:19.368Z,14.85
2022-10-03T02:18:02.493Z,14.85
2022-10-03T02:20:50.346Z,14.87
2022-10-03T02:23:33.821Z,14.88
2022-10-03T02:26:09.190Z,14.91
2022-10-03T02:29:17.069Z,14.93
2022-10-03T02:32:07.054Z,14.93
2022-10-03T02:34:56.502Z,14.94
2022-10-03T02:37:58.195Z,14.96
2022-10-03T02:41:01.799Z,14.98
2022-10-03T02:43:58.927Z,14.98
2022-10-03T02:47:18.641Z,15.01
2022-10-03T02:49:57.790Z,15.02
2022-10-03T02:53:00.509Z,15.06
2022-10-03T02:56:10.073Z,15.09
2022-10-03T02:59:52.262Z,15.08
2022-10-03T03:02:57.321Z,15.05
2022-10-03T03:05:51.430Z,15.07
2022-10-03T03:09:00.331Z,15.10
2022-10-03T03:12:14.003Z,15.09
2022-10-03T03:15:37.148Z,15.09
2022-10-03T03:18:47.481Z,15.07
2022-10-03T03:21:44.457Z,15.07
2022-10-03T03:25:08.878Z,15.06
2022-10-03T03:28:04.486Z,15.03
2022-10-03T03:30:59.151Z,15.02
2022-10-03T03:34:22.400Z,15.00
2022-10-03T03:37:13.603Z,14.95
2022-10-03T03:40:11.656Z,14.93
2022-10-03T03:43:20.379Z,14.90
2022-10-03T03:46:44.693Z,14.86
2022-10-03T03:49:46.692Z,14.82
2022-10-03T03:53:00.776Z,14.82
2022-10-03T03:55:33.510Z,14.81
2022-10-03T03:58:08.119Z,14.82
2022-10-03T04:01:06.639Z,14.82
2022-10-03T04:04:14.766Z,14.83
2022-10-03T04:07:07.050Z,14.83
2022-10-03T04:10:23.672Z,14.83
2022-10-03T04:13:01.757Z,14.81
2022-10-03T04:16:00.170Z,14.83
2022-10-03T04:18:48.387Z,14.82
2022-10-03T04:21:52.906Z,14.82
2022-10-03T04:24:53.039Z,14.80
2022-10-03T04:28:01.201Z,14.79
2022-10-03T04:30:39.632Z,14.76
2022-10-03T04:34:03.960Z,14.75
2022-10-03T04:36:55.124Z,14.70
2022-10-03T04:39:47.925Z,14.69
2022-10-03T04:43:02.151Z,14.66
2022-10-03T04:45:48.153Z,14.62
2022-10-03T04:48:39.630Z,14.62
2022-10-03T04:51:26.190Z,14.60
2022-10-03T04:54:15.355Z,14.59
2022-10-03T04:56:45.249Z,14.56
2022-10-03T04:59:42.174Z,14.56
2022-10-03T05:02:52.938Z,14.53
2022-10-03T05:05:41.645Z,14.49
2022-10-03T05:08:22.948Z,14.48
2022-10-03T05:11:30.278Z,14.47
2022-10-03T05:14:40.498Z,14.44
2022-10-03T05:17:42.415Z,14.39
2022-10-03T05:21:00.683Z,14.37
2022-10-03T05:24:02.858Z,14.38
2022-10-03T05:27:03.219Z,14.38
2022-10-03T05:29:43.933Z,14.40
2022-10-03T05:32:30.383Z,14.42
2022-10-03T05:35:37.418Z,14.44
2022-10-03T05:38:16.273Z,14.45
2022-10-03T05:41:02.420Z,14.47
2022-10-03T05:43:58.148Z,14.52
2022-10-03T05:47:31.465Z,14.54
2022-10-03T05:50:43.274Z,14.57
2022-10-03T05:53:30.702Z,14.61
2022-10-03T05:56:47.475Z,14.68
2022-10-03T06:00:01.960Z,14.72
2022-10-03T06:02:53.969Z,14.76
2022-10-03T06:05:46.377Z,14.82
2022-10-03T06:08:50.977Z,14.90
2022-10-03T06:11:52.189Z,14.95
2022-10-03T06:14:49.709Z,15.02
2022-10-03T06:17:53.967Z,15.09
2022-10-03T06:21:01.218Z,15.18
2022-10-03T06:24:15.486Z,15.25
2022-10-03T06:26:58.072Z,15.30
2022-10-03T06:30:05.715Z,15.39
2022-10-03T06:33:09.181Z,15.47
2022-10-03T06:36:06.674Z,15.55
2022-10-03T06:39:16.961Z,15.65
2022-10-03T06:42:17.834Z,15.75
2022-10-03T06:45:11.871Z,15.87
2022-10-03T06:48:08.680Z,15.98
2022-10-03T06:50:50.154Z,16.08
2022-10-03T06:53:48.925Z,16.19
2022-10-03T06:56:31.690Z,16.30
2022-10-03T06:59:39.644Z,16.43
2022-10-03T07:07:00.486Z,16.69
2022-10-03T07:09:53.787Z,16.82
2022-10-03T07:12:38.247Z,16.98
2022-10-03T07:16:08.846Z,17.20
2022-10-03T07:18:48.616Z,17.37
2022-10-03T07:22:22.197Z,17.57
2022-10-03T07:25:15.105Z,17.75
2022-10-03T07:28:04.474Z,17.92
2022-10-03T07:31:03.063Z,18.08
2022-10-03T07:33:53.540Z,18.25
2022-10-03T07:37:22.522Z,18.45
2022-10-03T07:40:29.696Z,18.76
2022-10-03T07:43:20.533Z,19.26
2022-10-03T07:46:10.935Z,19.79
2022-10-03T07:49:20.551Z,20.16
2022-10-03T07:52:17.940Z,20.39
2022-10-03T07:55:02.728Z,20.54
2022-10-03T07:58:14.562Z,20.77
2022-10-03T08:01:18.162Z,20.97
2022-10-03T08:04:21.535Z,21.32
2022-10-03T08:07:06.021Z,21.63
2022-10-03T08:09:57.456Z,21.83
2022-10-03T08:12:48.929Z,21.99
2022-10-03T08:15:49.726Z,22.11
2022-10-03T08:18:57.249Z,22.18
2022-10-03T08:21:55.906Z,22.38
2022-10-03T08:25:16.812Z,23.01
2022-10-03T08:28:18.136Z,24.25
2022-10-03T08:31:30.682Z,25.58
2022-10-03T08:34:10.183Z,26.84
2022-10-03T08:37:14.651Z,27.79
2022-10-03T08:40:53.603Z,28.73
2022-10-03T08:44:03.456Z,29.33
2022-10-03T08:47:03.991Z,29.97
2022-10-03T08:50:22.750Z,30.52
2022-10-03T08:53:29.019Z,30.85
2022-10-03T08:56:17.886Z,31.20
2022-10-03T08:59:28.690Z,31.42
2022-10-03T09:02:45.043Z,31.38
2022-10-03T09:05:50.352Z,31.06
2022-10-03T09:09:13.659Z,30.83
2022-10-03T09:12:31.634Z,31.16
2022-10-03T09:15:27.189Z,31.88
2022-10-03T09:18:14.884Z,32.64
2022-10-03T09:21:23.112Z,33.27
2022-10-03T09:24:26.096Z,33.47
2022-10-03T09:27:32.584Z,33.41
2022-10-03T09:30:25.930Z,33.56
2022-10-03T09:33:43.022Z,33.83
2022-10-03T09:36:34.670Z,33.86
2022-10-03T09:40:17.689Z,33.92
2022-10-03T09:43:20.999Z,34.27
2022-10-03T09:46:46.309Z,34.47
2022-10-03T09:49:57.703Z,34.23
2022-10-03T09:53:03.572Z,33.75
2022-10-03T09:55:53.236Z,33.31
2022-10-03T09:58:41.807Z,32.80
2022-10-03T10:01:17.611Z,32.41
2022-10-03T10:03:47.221Z,32.18
2022-10-03T10:06:25.856Z,32.14
2022-10-03T10:09:39.788Z,32.38
2022-10-03T10:12:18.421Z,32.58
2022-10-03T10:14:53.878Z,32.48
2022-10-03T10:18:00.890Z,32.08
2022-10-03T10:21:04.775Z,31.55
2022-10-03T10:23:57.464Z,31.26
2022-10-03T10:26:29.953Z,31.21
2022-10-03T10:29:41.886Z,31.03
2022-10-03T10:32:46.225Z,30.84
2022-10-03T10:35:40.671Z,30.50
2022-10-03T10:38:38.765Z,30.21
2022-10-03T10:41:44.717Z,29.85
2022-10-03T10:45:11.014Z,29.59
2022-10-03T10:48:24.392Z,29.62
2022-10-03T10:51:16.638Z,29.93
2022-10-03T10:54:33.691Z,30.42
2022-10-03T10:57:46.266Z,30.90
2022-10-03T11:00:48.711Z,31.34
2022-10-03T11:04:00.111Z,31.62
2022-10-03T11:06:57.808Z,31.77
2022-10-03T11:09:56.802Z,31.89
2022-10-03T11:13:01.778Z,32.03
2022-10-03T11:16:35.354Z,32.20
2022-10-03T11:19:26.999Z,32.29
2022-10-03T11:22:35.939Z,32.44
2022-10-03T11:25:36.015Z,32.64
2022-10-03T11:28:38.284Z,32.69
2022-10-03T11:31:33.001Z,32.48
2022-10-03T11:34:21.510Z,32.24
2022-10-03T11:37:34.007Z,32.10
2022-10-03T11:40:35.467Z,32.06
2022-10-03T11:43:39.431Z,31.88
2022-10-03T11:46:51.229Z,31.55
2022-10-03T11:49:56.387Z,31.18
2022-10-03T11:53:07.012Z,30.77
2022-10-03T11:56:04.953Z,30.41
2022-10-03T11:58:59.256Z,30.13
2022-10-03T12:01:32.219Z,29.81
2022-10-03T12:04:18.156Z,29.48
2022-10-03T12:07:29.883Z,29.30
2022-10-03T12:10:30.196Z,28.93
2022-10-03T12:12:59.477Z,28.64
2022-10-03T12:16:26.739Z,28.19
2022-10-03T12:19:13.010Z,27.89
2022-10-03T12:21:55.928Z,27.74
2022-10-03T12:24:36.554Z,27.69
2022-10-03T12:27:41.944Z,27.63
2022-10-03T12:30:17.950Z,27.61
2022-10-03T12:33:22.380Z,27.56
2022-10-03T12:36:13.171Z,27.53
2022-10-03T12:39:04.908Z,27.52
2022-10-03T12:42:04.682Z,27.50
2022-10-03T12:44:53.601Z,27.53
2022-10-03T12:47:51.160Z,27.58
2022-10-03T12:50:43.762Z,27.60
2022-10-03T12:53:16.939Z,27.69
2022-10-03T12:56:13.682Z,27.77
2022-10-03T12:59:11.051Z,27.86
2022-10-03T13:02:26.109Z,27.91
2022-10-03T13:05:26.401Z,27.95
2022-10-03T13:08:28.153Z,27.93
2022-10-03T13:11:25.893Z,27.79
2022-10-03T13:14:20.043Z,27.65
2022-10-03T13:17:15.069Z,27.35
2022-10-03T13:20:14.622Z,27.04
2022-10-03T13:23:24.351Z,26.79
2022-10-03T13:26:25.758Z,26.51
2022-10-03T13:29:14.133Z,26.23
2022-10-03T13:32:01.344Z,25.95
2022-10-03T13:34:37.007Z,25.67
2022-10-03T13:37:19.270Z,25.40
2022-10-03T13:39:54.087Z,25.15
2022-10-03T13:42:42.278Z,24.92
2022-10-03T13:45:27.281Z,24.75
2022-10-03T13:48:21.543Z,24.54
2022-10-03T13:50:58.284Z,24.40
2022-10-03T13:54:01.112Z,24.20
2022-10-03T13:56:31.155Z,24.03
2022-10-03T13:59:33.258Z,23.85
2022-10-03T14:02:08.857Z,23.72
2022-10-03T14:05:18.783Z,23.59
2022-10-03T14:08:39.988Z,23.39
2022-10-03T14:11:26.841Z,23.28
2022-10-03T14:14:21.465Z,23.21
2022-10-03T14:17:53.102Z,23.10
2022-10-03T14:21:02.253Z,23.02
2022-10-03T14:23:50.584Z,22.94
2022-10-03T14:26:52.951Z,22.89
2022-10-03T14:29:59.350Z,22.82
2022-10-03T14:32:50.217Z,22.80
2022-10-03T14:35:51.119Z,22.84
2022-10-03T14:38:56.206Z,22.90
2022-10-03T14:41:52.081Z,22.95
2022-10-03T14:44:35.256Z,22.97
2022-10-03T14:47:11.246Z,22.99
2022-10-03T14:49:56.445Z,23.00
2022-10-03T14:53:02.557Z,22.95
2022-10-03T14:55:44.956Z,22.93
2022-10-03T15:02:27.620Z,22.89
2022-10-03T15:05:03.918Z,22.95
2022-10-03T15:07:41.546Z,23.00
2022-10-03T15:10:16.273Z,23.02
2022-10-03T15:12:59.038Z,23.01
2022-10-03T15:15:32.379Z,23.04
2022-10-03T15:18:03.335Z,23.07
2022-10-03T15:20:41.725Z,23.09
2022-10-03T15:23:40.261Z,23.11
2022-10-03T15:26:19.470Z,23.12
2022-10-03T15:28:53.855Z,23.14
2022-10-03T15:31:26.151Z,23.15
2022-10-03T15:33:55.285Z,23.15
2022-10-03T15:36:32.253Z,23.14
2022-10-03T15:39:04.859Z,23.13
2022-10-03T15:42:15.363Z,23.06
2022-10-03T15:45:05.550Z,23.00
2022-10-03T15:47:40.107Z,22.94
2022-10-03T15:50:31.030Z,22.82
2022-10-03T15:53:35.511Z,22.73
2022-10-03T15:56:17.624Z,22.63
2022-10-03T15:58:51.516Z,22.56
2022-10-03T16:01:33.150Z,22.46
2022-10-03T16:04:08.213Z,22.39
2022-10-03T16:06:47.627Z,22.31
2022-10-03T16:09:38.814Z,22.20
2022-10-03T16:12:16.692Z,22.13
2022-10-03T16:14:52.293Z,22.06
2022-10-03T16:17:28.971Z,21.99
2022-10-03T16:20:10.087Z,21.92
2022-10-03T16:22:52.110Z,21.82
2022-10-03T16:25:47.978Z,21.74
2022-10-03T16:28:21.842Z,21.65
2022-10-03T16:31:11.510Z,21.55
2022-10-03T16:33:52.623Z,21.48
2022-10-03T16:36:23.272Z,21.40
2022-10-03T16:39:29.909Z,21.30
2022-10-03T16:41:56.776Z,21.23
2022-10-03T16:44:39.829Z,21.17
2022-10-03T16:47:09.475Z,21.13
2022-10-03T16:50:15.341Z,21.02
2022-10-03T16:52:45.758Z,20.93
2022-10-03T16:55:34.977Z,20.84
2022-10-03T16:58:23.062Z,20.74
2022-10-03T17:01:26.500Z,20.66
2022-10-03T17:04:15.684Z,20.53
2022-10-03T17:06:51.379Z,20.46
2022-10-03T17:09:38.776Z,20.42
2022-10-03T17:12:33.139Z,20.38
2022-10-03T17:15:08.656Z,20.33
2022-10-03T17:17:59.832Z,20.25
2022-10-03T17:20:52.224Z,20.11
2022-10-03T17:23:57.875Z,20.02
2022-10-03T17:26:34.035Z,19.95
2022-10-03T17:29:18.117Z,19.88
2022-10-03T17:31:48.012Z,19.82
2022-10-03T17:34:26.269Z,19.74
2022-10-03T17:37:29.138Z,19.58
2022-10-03T17:40:23.115Z,19.47
2022-10-03T17:43:01.888Z,19.35
2022-10-03T17:45:41.784Z,19.28
2022-10-03T17:48:19.767Z,19.20
2022-10-03T17:51:26.879Z,19.13
2022-10-03T17:53:57.950Z,19.02
2022-10-03T17:56:27.386Z,18.93
2022-10-03T17:59:12.174Z,18.87
2022-10-03T18:01:55.583Z,18.78
2022-10-03T18:04:42.720Z,18.68
2022-10-03T18:07:18.549Z,18.59
2022-10-03T18:09:54.593Z,18.54
2022-10-03T18:12:42.166Z,18.48
2022-10-03T18:15:37.422Z,18.38
2022-10-03T18:18:26.206Z,18.30
2022-10-03T18:21:02.674Z,18.24
2022-10-03T18:23:55.817Z,18.16
2022-10-03T18:26:38.196Z,18.08
2022-10-03T18:29:32.905Z,18.01
2022-10-03T18:32:22.638Z,17.96
2022-10-03T18:35:05.112Z,17.91
2022-10-03T18:37:31.750Z,17.86
2022-10-03T18:40:00.255Z,17.83
2022-10-03T18:42:29.965Z,17.75
2022-10-03T18:45:00.568Z,17.72
2022-10-03T18:47:38.362Z,17.67
2022-10-03T18:50:30.262Z,17.62
2022-10-03T18:53:26.790Z,17.53
2022-10-03T18:56:03.200Z,17.51
2022-10-03T18:58:37.098Z,17.46
2022-10-03T19:01:31.789Z,17.45
2022-10-03T19:04:07.640Z,17.40
2022-10-03T19:06:43.439Z,17.35
2022-10-03T19:09:39.232Z,17.34
2022-10-03T19:12:23.418Z,17.29
2022-10-03T19:15:33.093Z,17.26
2022-10-03T19:18:27.441Z,17.21
2022-10-03T19:20:59.902Z,17.18
2022-10-03T19:23:41.421Z,17.15
2022-10-03T19:26:24.200Z,17.12
2022-10-03T19:28:58.265Z,17.10
2022-10-03T19:31:35.697Z,17.10
2022-10-03T19:34:26.710Z,17.09
2022-10-03T19:36:57.252Z,17.06
2022-10-03T19:39:29.234Z,17.07
2022-10-03T19:42:42.310Z,17.04
2022-10-03T19:45:15.056Z,17.01
2022-10-03T19:48:00.370Z,16.99
2022-10-03T19:50:38.124Z,16.97
2022-10-03T19:53:31.985Z,16.97
2022-10-03T19:56:04.129Z,16.94
2022-10-03T19:58:32.377Z,16.92
2022-10-03T20:01:02.360Z,16.94
2022-10-03T20:03:32.048Z,16.93
2022-10-03T20:06:22.588Z,16.90
2022-10-03T20:09:20.257Z,16.85
2022-10-03T20:12:00.375Z,16.78
2022-10-03T20:14:35.830Z,16.74
2022-10-03T20:17:10.196Z,16.75
2022-10-03T20:19:54.368Z,16.73
2022-10-03T20:22:26.839Z,16.70
2022-10-03T20:24:54.018Z,16.69
2022-10-03T20:27:45.429Z,16.67
2022-10-03T20:30:43.159Z,16.62
2022-10-03T20:33:31.587Z,16.58
2022-10-03T20:36:13.776Z,16.53
2022-10-03T20:38:59.500Z,16.51
2022-10-03T20:41:41.607Z,16.45
2022-10-03T20:44:17.730Z,16.42
2022-10-03T20:47:05.595Z,16.38
2022-10-03T20:49:52.778Z,16.31
2022-10-03T20:52:25.560Z,16.27
2022-10-03T20:55:02.907Z,16.23
2022-10-03T20:57:53.515Z,16.18
2022-10-03T21:00:25.322Z,16.13
2022-10-03T21:03:08.325Z,16.12
2022-10-03T21:05:46.241Z,16.09
2022-10-03T21:08:29.930Z,16.06
2022-10-03T21:11:04.640Z,16.03
2022-10-03T21:13:52.315Z,15.99
2022-10-03T21:16:30.353Z,15.96
2022-10-03T21:19:04.906Z,15.94
2022-10-03T21:21:43.385Z,15.93
2022-10-03T21:24:26.837Z,15.90
2022-10-03T21:27:06.923Z,15.88
2022-10-03T21:29:36.986Z,15.85
2022-10-03T21:32:49.189Z,15.85
2022-10-03T21:35:29.674Z,15.81
2022-10-03T21:38:08.332Z,15.81
2022-10-03T21:41:22.132Z,15.79
2022-10-03T21:44:49.791Z,15.76
2022-10-03T21:47:52.758Z,15.69
2022-10-03T21:50:29.453Z,15.65
2022-10-03T21:53:50.177Z,15.66
2022-10-03T21:56:34.919Z,15.62
2022-10-03T21:59:49.470Z,15.62
2022-10-03T22:03:18.088Z,15.59
2022-10-03T22:06:15.684Z,15.58
2022-10-03T22:08:47.617Z,15.57
2022-10-03T22:11:46.295Z,15.61
2022-10-03T22:14:54.327Z,15.60
2022-10-03T22:17:51.124Z,15.61
2022-10-03T22:20:26.119Z,15.61
2022-10-03T22:23:16.945Z,15.64
2022-10-03T22:25:58.165Z,15.65
2022-10-03T22:29:04.829Z,15.67
2022-10-03T22:31:56.822Z,15.67
2022-10-03T22:34:48.991Z,15.69
2022-10-03T22:37:16.549Z,15.67
2022-10-03T22:39:43.280Z,15.68
2022-10-03T22:42:14.915Z,15.68
2022-10-03T22:44:47.910Z,15.67
2022-10-03T22:47:24.747Z,15.65
2022-10-03T22:49:58.892Z,15.60
2022-10-03T22:52:34.994Z,15.59
2022-10-03T22:55:05.671Z,15.57
2022-10-03T22:57:35.883Z,15.56
2022-10-03T23:00:17.788Z,15.56
2022-10-03T23:03:10.682Z,15.54
2022-10-03T23:06:10.916Z,15.49
2022-10-03T23:08:53.476Z,15.46
2022-10-03T23:11:33.003Z,15.47
2022-10-03T23:14:13.450Z,15.46
2022-10-03T23:17:13.224Z,15.44
2022-10-03T23:20:26.062Z,15.43
2022-10-03T23:23:01.000Z,15.42
2022-10-03T23:25:53.903Z,15.43
2022-10-03T23:28:48.044Z,15.43
2022-10-03T23:31:52.519Z,15.40
2022-10-03T23:34:37.433Z,15.36
2022-10-03T23:37:13.334Z,15.32
2022-10-03T23:39:44.415Z,15.32
2022-10-03T23:42:26.890Z,15.30
2022-10-03T23:44:58.846Z,15.27
2022-10-03T23:47:39.061Z,15.25
2022-10-03T23:50:08.848Z,15.22
2022-10-03T23:52:47.823Z,15.23
2022-10-03T23:55:31.197Z,15.23
2022-10-03T23:57:59.263Z,15.22
